Rechercher aéroport 
image banner adimage banner ad
image banner ad

SSRJ - Fazenda Jequitibá Airport

Situé à Nova Alvorada Do Sul, Brazil

ICAO - SSRJ, IATA -

Données fournies par Airmate  

Information générale

Coordonnées: S29°58'58" W51°18'2"
Élévation : 6 feet MSL.
Variation magnétique : -17° East
Voir autres Aéroports à Rio Grande do Sul

Données opérationnelles

Accessible au public
Heure actuelle UTC:
Heure actuelle locale:
Météo à : SBPA - Salgado Filho ( 13 km )
METAR: SBPA 301400Z 04005KT 360V090 4000 -TSRA BR FEW008 SCT028 FEW035CB OVC100 20/20 Q1011
TAF: TAF SBPA 300900Z 3012/0112 03005KT 6000 TSRA SCT030 FEW040CB TX24/3018Z TN21/0108Z BECMG 3015/3017 09005KT CAVOK RMK PED
Voir NOTAMs / SUP AIP / TFR affectant cet aéroport [VIEW]
Fréquences de communication: [VIEW]

Pistes:

Identifiant RWYQFULongueur (ft)Largeur (ft)SurfaceLDA (ft)
06213275GRASS
24213275GRASS

Coordonnées de l'aéroport

Adresse: Nova Alvorada Do Sul Brazil

Vue satellite de SSRJ